Terminal Aerodrome Forecast
Issued by NWS

Home | Current Version | Previous Version | Text Only | Print | Product List | Glossary On
Versions: 1 2 3 4 5 6 7 8 9 10 11 12 13 14 15 16 17 18 19 20 21
000
FTUS43 KGRB 271700
TAFATW
TAF
KATW 271730Z 2718/2818 24012G22KT 3SM BR OVC004
     FM272000 28011G18KT P6SM OVC012
     FM272300 29008KT P6SM BKN020
     FM280300 28007KT P6SM SCT020 SCT080
     FM280900 27005KT P6SM SKC
     FM281500 29008KT P6SM SCT035=

USA.gov is the U.S. government's official web portal to all federal, state and local government web resources and services.